Time;durP1;ratioP1;P1;durP2;ratioP2;P2;SDS_P1;SDS_P2;PMS_P1;PMS_P2;Temp;Humidity;BMP_temperature;BMP_pressure;BME280_temperature;BME280_humidity;BME280_pressure;Samples;Min_cycle;Max_cycle;Signal;HPM_P1;HPM_P2
2024/01/01 00:01:00;;;;;;;6.53;4.80;;;;;;;;;;5090757;28;20742;-71
2024/01/01 00:03:29;;;;;;;11.98;4.88;;;;;;;;;;5090818;28;20198;-71
2024/01/01 00:05:58;;;;;;;5.30;3.40;;;;;;;;;;5091242;28;20221;-71
2024/01/01 00:08:27;;;;;;;6.93;3.80;;;;;;;;;;5072941;28;20195;-71
2024/01/01 00:10:55;;;;;;;5.55;3.25;;;;;;;;;;5092670;28;20210;-71
2024/01/01 00:13:23;;;;;;;5.88;4.07;;;;;;;;;;5092362;28;20205;-71
2024/01/01 00:15:53;;;;;;;5.25;2.83;;;;;;;;;;5092058;28;20608;-71
2024/01/01 00:18:21;;;;;;;4.53;3.55;;;;;;;;;;5091666;28;20210;-71
2024/01/01 00:20:49;;;;;;;6.90;3.45;;;;;;;;;;5092346;28;20191;-71
2024/01/01 00:23:17;;;;;;;7.38;3.78;;;;;;;;;;5091978;28;20195;-71
2024/01/01 00:25:46;;;;;;;7.60;3.25;;;;;;;;;;5092142;28;20223;-72
2024/01/01 00:28:14;;;;;;;5.32;3.70;;;;;;;;;;5092218;28;20207;-71
2024/01/01 00:30:42;;;;;;;5.13;3.97;;;;;;;;;;5074121;28;20213;-71
2024/01/01 00:33:12;;;;;;;6.55;4.35;;;;;;;;;;5092393;28;20656;-71
2024/01/01 00:35:40;;;;;;;5.90;4.30;;;;;;;;;;5091978;28;20203;-71
2024/01/01 00:38:08;;;;;;;4.07;3.75;;;;;;;;;;5092169;28;20203;-71
2024/01/01 00:40:37;;;;;;;6.22;3.75;;;;;;;;;;5092164;28;20227;-71
2024/01/01 00:43:05;;;;;;;7.88;5.72;;;;;;;;;;5091658;28;20649;-71
2024/01/01 00:45:34;;;;;;;9.80;4.97;;;;;;;;;;5071563;28;20233;-71
2024/01/01 00:48:03;;;;;;;6.80;4.47;;;;;;;;;;5071623;28;20630;-72
2024/01/01 00:50:33;;;;;;;7.15;4.55;;;;;;;;;;5060009;28;20205;-71
2024/01/01 00:53:01;;;;;;;9.10;5.25;;;;;;;;;;5073477;28;20206;-71
2024/01/01 00:55:31;;;;;;;9.48;5.55;;;;;;;;;;5092127;28;20568;-71
2024/01/01 00:57:59;;;;;;;10.02;6.40;;;;;;;;;;5057263;28;20539;-73
2024/01/01 01:00:28;;;;;;;12.05;7.07;;;;;;;;;;5091424;28;20230;-71
2024/01/01 01:02:56;;;;;;;14.07;8.07;;;;;;;;;;5090771;28;20203;-71
2024/01/01 01:05:24;;;;;;;12.45;8.85;;;;;;;;;;5091023;28;20609;-71
2024/01/01 01:07:54;;;;;;;11.95;8.60;;;;;;;;;;5090510;28;20206;-71
2024/01/01 01:10:22;;;;;;;18.60;10.02;;;;;;;;;;5073615;28;20207;-71
2024/01/01 01:12:53;;;;;;;16.35;9.70;;;;;;;;;;5073123;28;20195;-72
2024/01/01 01:15:21;;;;;;;15.00;10.25;;;;;;;;;;5091654;28;20187;-71
2024/01/01 01:17:50;;;;;;;14.88;9.68;;;;;;;;;;5091610;28;20550;-71
2024/01/01 01:20:18;;;;;;;13.35;10.10;;;;;;;;;;5091708;28;20199;-71
2024/01/01 01:22:46;;;;;;;16.77;9.80;;;;;;;;;;5091257;28;20202;-72
2024/01/01 01:25:17;;;;;;;14.63;10.68;;;;;;;;;;5091270;28;20641;-71
2024/01/01 01:27:46;;;;;;;18.52;9.98;;;;;;;;;;5090840;28;20188;-71
2024/01/01 01:30:15;;;;;;;16.63;10.93;;;;;;;;;;5057023;28;20210;-72
2024/01/01 01:32:43;;;;;;;15.88;9.95;;;;;;;;;;5090565;28;20577;-72
2024/01/01 01:35:12;;;;;;;11.90;8.98;;;;;;;;;;5091119;28;20207;-72
2024/01/01 01:37:40;;;;;;;17.13;8.90;;;;;;;;;;5091849;28;20192;-71
2024/01/01 01:40:09;;;;;;;19.67;8.80;;;;;;;;;;5072975;28;20207;-71
2024/01/01 01:42:38;;;;;;;13.05;8.55;;;;;;;;;;5090810;28;20200;-71
2024/01/01 01:45:07;;;;;;;11.05;7.53;;;;;;;;;;5090063;28;20223;-71
2024/01/01 01:47:36;;;;;;;13.68;8.10;;;;;;;;;;5074466;28;20218;-71
2024/01/01 01:50:06;;;;;;;15.80;8.10;;;;;;;;;;5090417;28;20316;-71
2024/01/01 01:52:34;;;;;;;12.80;7.45;;;;;;;;;;5090994;28;20245;-71
2024/01/01 01:55:03;;;;;;;9.52;7.53;;;;;;;;;;5090579;28;20207;-72
2024/01/01 01:57:32;;;;;;;9.15;6.70;;;;;;;;;;5052981;28;20212;-72
2024/01/01 02:00:02;;;;;;;11.07;6.15;;;;;;;;;;5086640;28;20191;-71
2024/01/01 02:02:51;;;;;;;12.07;6.00;;;;;;;;;;5045568;28;20674;-71
2024/01/01 02:05:20;;;;;;;9.38;6.75;;;;;;;;;;5035888;28;20279;-71
2024/01/01 02:07:48;;;;;;;10.82;7.30;;;;;;;;;;5047637;28;20216;-71
2024/01/01 02:10:16;;;;;;;11.82;6.75;;;;;;;;;;5033413;28;20197;-71
2024/01/01 02:12:45;;;;;;;11.57;6.90;;;;;;;;;;5030284;28;20213;-71
2024/01/01 02:15:15;;;;;;;10.05;5.93;;;;;;;;;;5047152;28;20575;-71
2024/01/01 02:17:43;;;;;;;10.00;6.85;;;;;;;;;;5025182;28;20694;-72
2024/01/01 02:20:12;;;;;;;9.80;5.90;;;;;;;;;;5031750;28;20209;-72
2024/01/01 02:22:41;;;;;;;11.00;5.97;;;;;;;;;;5047748;28;20792;-71
2024/01/01 02:25:12;;;;;;;8.30;5.20;;;;;;;;;;5031623;28;20204;-72
2024/01/01 02:27:40;;;;;;;8.35;5.80;;;;;;;;;;5032190;28;20225;-71
2024/01/01 02:30:10;;;;;;;10.30;5.10;;;;;;;;;;5042553;28;20206;-72
2024/01/01 02:32:38;;;;;;;8.98;4.68;;;;;;;;;;5032164;28;20208;-71
2024/01/01 02:35:08;;;;;;;10.07;3.40;;;;;;;;;;5035242;28;20200;-71
2024/01/01 02:37:36;;;;;;;6.88;3.85;;;;;;;;;;5033037;28;20204;-71
2024/01/01 02:40:05;;;;;;;9.07;4.40;;;;;;;;;;5063728;28;20232;-71
2024/01/01 02:42:35;;;;;;;7.03;3.50;;;;;;;;;;5091918;28;20210;-71
2024/01/01 02:45:04;;;;;;;11.43;3.28;;;;;;;;;;5087225;28;20231;-71
2024/01/01 02:47:32;;;;;;;6.10;3.65;;;;;;;;;;5075498;28;20217;-71
2024/01/01 02:50:00;;;;;;;7.43;3.35;;;;;;;;;;5094142;28;20203;-71
2024/01/01 02:52:28;;;;;;;8.50;3.30;;;;;;;;;;5093509;28;20715;-71
2024/01/01 02:54:56;;;;;;;4.82;3.20;;;;;;;;;;5094012;28;20202;-71
2024/01/01 02:57:26;;;;;;;4.78;2.70;;;;;;;;;;5093729;28;20198;-71
2024/01/01 02:59:56;;;;;;;4.70;3.05;;;;;;;;;;5093077;28;20203;-71
2024/01/01 03:02:25;;;;;;;5.28;3.10;;;;;;;;;;5092636;28;20261;-71
2024/01/01 03:04:53;;;;;;;7.15;2.70;;;;;;;;;;5092454;28;20199;-71
2024/01/01 03:07:21;;;;;;;4.13;3.35;;;;;;;;;;5092780;28;20219;-71
2024/01/01 03:09:50;;;;;;;3.40;2.58;;;;;;;;;;5075526;28;20552;-71
2024/01/01 03:12:18;;;;;;;5.28;2.83;;;;;;;;;;5093267;28;20625;-71
2024/01/01 03:14:46;;;;;;;4.90;2.80;;;;;;;;;;5092681;28;20654;-71
2024/01/01 03:17:16;;;;;;;3.90;2.55;;;;;;;;;;5093047;28;20195;-71
2024/01/01 03:19:44;;;;;;;4.13;2.50;;;;;;;;;;5092462;28;20199;-71
2024/01/01 03:22:13;;;;;;;4.90;2.60;;;;;;;;;;5074407;28;20674;-72
2024/01/01 03:24:41;;;;;;;7.15;3.13;;;;;;;;;;5092665;28;20554;-73
2024/01/01 03:27:09;;;;;;;4.35;2.60;;;;;;;;;;5093441;28;20215;-70
2024/01/01 03:29:37;;;;;;;6.78;2.53;;;;;;;;;;5093552;28;20203;-71
2024/01/01 03:32:06;;;;;;;9.10;2.33;;;;;;;;;;5093393;28;20213;-70
2024/01/01 03:34:35;;;;;;;8.13;3.00;;;;;;;;;;5093101;28;20210;-71
2024/01/01 03:37:04;;;;;;;3.50;2.17;;;;;;;;;;5093195;28;20210;-71
2024/01/01 03:39:32;;;;;;;5.55;2.30;;;;;;;;;;5092906;28;20203;-71
2024/01/01 03:42:00;;;;;;;4.50;2.22;;;;;;;;;;5092161;28;20249;-70
2024/01/01 03:44:28;;;;;;;4.57;2.65;;;;;;;;;;5087258;28;20223;-71
2024/01/01 03:46:56;;;;;;;5.15;2.90;;;;;;;;;;5080749;28;20716;-70
2024/01/01 03:49:25;;;;;;;4.28;2.28;;;;;;;;;;5092042;28;20203;-71
2024/01/01 03:51:54;;;;;;;7.55;2.30;;;;;;;;;;5092468;28;20191;-71
2024/01/01 03:54:23;;;;;;;3.55;2.30;;;;;;;;;;5092690;28;20203;-71
2024/01/01 03:56:51;;;;;;;6.00;2.60;;;;;;;;;;5091685;28;20719;-71
2024/01/01 03:59:19;;;;;;;8.25;2.85;;;;;;;;;;5091999;28;20196;-71
2024/01/01 04:01:47;;;;;;;11.18;2.25;;;;;;;;;;5089601;28;20206;-71
2024/01/01 04:04:16;;;;;;;9.93;2.63;;;;;;;;;;5073413;28;20206;-71
2024/01/01 04:06:45;;;;;;;5.47;2.60;;;;;;;;;;5091372;28;20273;-70
2024/01/01 04:09:15;;;;;;;4.65;2.10;;;;;;;;;;5092237;28;20209;-70
2024/01/01 04:11:43;;;;;;;5.88;2.72;;;;;;;;;;5091896;28;20199;-70
2024/01/01 04:14:11;;;;;;;8.73;3.00;;;;;;;;;;5091926;28;20204;-71
2024/01/01 04:16:39;;;;;;;6.28;2.42;;;;;;;;;;5091833;28;20276;-72
2024/01/01 04:19:08;;;;;;;7.72;2.78;;;;;;;;;;5091983;28;20247;-70
2024/01/01 04:21:39;;;;;;;4.90;2.72;;;;;;;;;;5074611;28;20200;-70
2024/01/01 04:24:08;;;;;;;6.10;2.50;;;;;;;;;;5091499;28;20559;-70
2024/01/01 04:26:39;;;;;;;3.45;1.98;;;;;;;;;;5072227;28;20206;-70
2024/01/01 04:29:07;;;;;;;7.15;2.85;;;;;;;;;;5074896;28;20199;-71
2024/01/01 04:31:35;;;;;;;6.68;2.45;;;;;;;;;;5074308;28;20195;-70
2024/01/01 04:34:03;;;;;;;8.00;2.33;;;;;;;;;;5091482;28;20199;-71
2024/01/01 04:36:32;;;;;;;6.60;2.20;;;;;;;;;;5090910;28;20203;-71
2024/01/01 04:39:03;;;;;;;8.93;2.53;;;;;;;;;;5091846;28;20568;-70
2024/01/01 04:41:31;;;;;;;5.25;1.92;;;;;;;;;;5091698;28;20233;-71
2024/01/01 04:44:01;;;;;;;4.97;1.65;;;;;;;;;;5091112;28;20215;-70
2024/01/01 04:46:29;;;;;;;7.40;2.58;;;;;;;;;;5091803;28;20696;-71
2024/01/01 04:48:57;;;;;;;5.55;2.63;;;;;;;;;;5091113;28;20211;-71
2024/01/01 04:51:26;;;;;;;7.20;2.20;;;;;;;;;;5091388;28;20199;-70
2024/01/01 04:53:54;;;;;;;7.60;2.00;;;;;;;;;;5091180;28;20201;-71
2024/01/01 04:56:23;;;;;;;8.88;2.13;;;;;;;;;;5091849;28;20203;-71
2024/01/01 04:58:54;;;;;;;4.15;1.60;;;;;;;;;;5089873;28;20195;-71
2024/01/01 05:01:26;;;;;;;5.20;2.38;;;;;;;;;;5091470;28;20196;-71
2024/01/01 05:03:54;;;;;;;4.68;1.92;;;;;;;;;;5095024;28;20188;-70
2024/01/01 05:06:22;;;;;;;5.22;1.70;;;;;;;;;;5113546;28;20203;-69
2024/01/01 05:08:50;;;;;;;7.57;1.65;;;;;;;;;;5112477;28;20254;-72
2024/01/01 05:11:19;;;;;;;2.63;1.98;;;;;;;;;;5113923;28;20191;-69
2024/01/01 05:13:47;;;;;;;4.72;1.80;;;;;;;;;;5112900;28;20198;-69
2024/01/01 05:16:15;;;;;;;4.70;2.42;;;;;;;;;;5113807;28;20183;-70
2024/01/01 05:18:44;;;;;;;3.83;2.22;;;;;;;;;;5113006;28;20238;-71
2024/01/01 05:21:12;;;;;;;1.48;1.30;;;;;;;;;;5113089;28;20195;-73
2024/01/01 05:23:40;;;;;;;8.05;1.70;;;;;;;;;;5112730;28;20202;-70
2024/01/01 05:26:08;;;;;;;2.88;1.45;;;;;;;;;;5114551;28;20209;-69
2024/01/01 05:28:36;;;;;;;9.45;2.20;;;;;;;;;;5112598;28;20222;-71
2024/01/01 05:31:04;;;;;;;5.25;1.60;;;;;;;;;;5114046;28;20199;-70
2024/01/01 05:33:32;;;;;;;2.55;1.52;;;;;;;;;;5113230;28;20210;-70
2024/01/01 05:36:02;;;;;;;5.53;1.50;;;;;;;;;;5113661;28;20203;-69
2024/01/01 05:38:30;;;;;;;5.40;1.50;;;;;;;;;;5113716;28;20202;-71
2024/01/01 05:40:58;;;;;;;8.95;1.60;;;;;;;;;;5112737;28;20219;-68
2024/01/01 05:43:26;;;;;;;4.10;1.48;;;;;;;;;;5111792;28;20183;-72
2024/01/01 05:45:54;;;;;;;3.90;1.80;;;;;;;;;;5094293;28;20175;-74
2024/01/01 05:48:22;;;;;;;5.70;1.30;;;;;;;;;;5098764;28;20211;-72
2024/01/01 05:50:50;;;;;;;4.25;1.40;;;;;;;;;;5116760;28;20195;-71
2024/01/01 05:53:19;;;;;;;6.95;1.42;;;;;;;;;;5117667;28;20256;-72
2024/01/01 05:55:47;;;;;;;2.65;1.17;;;;;;;;;;5117587;28;20242;-71
2024/01/01 05:58:15;;;;;;;11.90;1.13;;;;;;;;;;5117502;28;20203;-69
2024/01/01 06:00:43;;;;;;;5.38;1.60;;;;;;;;;;5116871;28;20230;-71
2024/01/01 06:03:11;;;;;;;5.15;1.50;;;;;;;;;;5116026;28;20199;-73
2024/01/01 06:05:40;;;;;;;4.53;1.85;;;;;;;;;;5115979;28;20201;-71
2024/01/01 06:08:08;;;;;;;5.63;1.85;;;;;;;;;;5116979;28;20219;-70
2024/01/01 06:10:37;;;;;;;2.58;1.23;;;;;;;;;;5116307;28;20231;-69
2024/01/01 06:13:05;;;;;;;3.45;1.33;;;;;;;;;;5099621;28;20222;-71
2024/01/01 06:15:34;;;;;;;3.58;1.20;;;;;;;;;;5116863;28;20241;-70
2024/01/01 06:18:02;;;;;;;5.15;1.60;;;;;;;;;;5079284;28;20216;-70
2024/01/01 06:20:30;;;;;;;1.80;1.30;;;;;;;;;;5110226;28;20218;-71
2024/01/01 06:22:58;;;;;;;4.05;1.65;;;;;;;;;;5116415;28;20227;-70
2024/01/01 06:25:27;;;;;;;6.63;2.35;;;;;;;;;;5096545;28;20223;-71
2024/01/01 06:27:56;;;;;;;8.45;1.45;;;;;;;;;;5115736;28;20234;-72
2024/01/01 06:30:25;;;;;;;8.82;1.85;;;;;;;;;;5098220;28;20221;-70
2024/01/01 06:32:53;;;;;;;3.75;1.60;;;;;;;;;;5115970;28;20222;-69
2024/01/01 06:35:22;;;;;;;5.90;1.48;;;;;;;;;;5115532;28;20260;-70
2024/01/01 06:37:50;;;;;;;7.57;1.90;;;;;;;;;;5115220;28;20231;-69
2024/01/01 06:40:19;;;;;;;9.38;3.00;;;;;;;;;;5115311;28;20226;-70
2024/01/01 06:42:47;;;;;;;4.10;1.80;;;;;;;;;;5099097;28;20226;-69
2024/01/01 06:45:17;;;;;;;5.05;1.38;;;;;;;;;;5116663;28;20247;-70
2024/01/01 06:47:45;;;;;;;5.75;1.60;;;;;;;;;;5095312;28;20237;-69
2024/01/01 06:50:14;;;;;;;5.68;1.60;;;;;;;;;;5093120;28;20230;-69
2024/01/01 06:52:42;;;;;;;6.38;1.48;;;;;;;;;;5093338;28;20245;-71
2024/01/01 06:55:10;;;;;;;6.10;1.58;;;;;;;;;;5111038;28;20233;-70
2024/01/01 06:57:39;;;;;;;4.95;1.90;;;;;;;;;;5110461;28;20227;-70
2024/01/01 07:00:08;;;;;;;2.58;1.23;;;;;;;;;;5109445;28;20256;-71
2024/01/01 07:02:38;;;;;;;1.67;1.35;;;;;;;;;;5113758;28;20222;-70
2024/01/01 07:05:07;;;;;;;2.08;1.35;;;;;;;;;;5114072;28;20219;-70
2024/01/01 07:07:35;;;;;;;4.60;1.73;;;;;;;;;;5113622;28;20215;-70
2024/01/01 07:10:03;;;;;;;2.88;1.60;;;;;;;;;;5108419;28;20240;-70
2024/01/01 07:12:31;;;;;;;9.48;2.00;;;;;;;;;;5113811;28;20211;-70
2024/01/01 07:15:00;;;;;;;8.30;2.20;;;;;;;;;;5113760;28;20227;-70
2024/01/01 07:17:29;;;;;;;8.90;1.35;;;;;;;;;;5114762;28;20226;-69
2024/01/01 07:20:00;;;;;;;6.85;1.38;;;;;;;;;;5114323;28;20231;-71
2024/01/01 07:22:28;;;;;;;11.00;2.58;;;;;;;;;;5113747;28;20219;-72
2024/01/01 07:24:56;;;;;;;5.57;1.70;;;;;;;;;;5114015;28;20227;-69
2024/01/01 07:27:24;;;;;;;5.60;1.45;;;;;;;;;;5114067;28;20231;-70
2024/01/01 07:29:52;;;;;;;2.35;1.05;;;;;;;;;;5114400;28;20218;-71
2024/01/01 07:32:21;;;;;;;5.05;1.35;;;;;;;;;;5113822;28;20223;-70
2024/01/01 07:34:49;;;;;;;4.72;1.52;;;;;;;;;;5114549;28;20227;-69
2024/01/01 07:37:18;;;;;;;2.30;1.15;;;;;;;;;;5114308;28;20727;-69
2024/01/01 07:39:47;;;;;;;2.55;1.40;;;;;;;;;;5114802;28;20242;-70
2024/01/01 07:42:15;;;;;;;4.55;1.45;;;;;;;;;;5114659;28;20242;-69
2024/01/01 07:44:44;;;;;;;1.83;1.23;;;;;;;;;;5114940;28;20245;-73
2024/01/01 07:47:12;;;;;;;4.70;1.58;;;;;;;;;;5096626;28;20224;-73
2024/01/01 07:49:40;;;;;;;4.72;1.42;;;;;;;;;;5113880;28;20250;-73
2024/01/01 07:52:08;;;;;;;4.40;1.20;;;;;;;;;;5108235;28;20234;-70
2024/01/01 07:54:39;;;;;;;4.70;1.60;;;;;;;;;;5114424;28;20227;-71
2024/01/01 07:57:07;;;;;;;3.55;1.35;;;;;;;;;;5114224;28;20227;-70
2024/01/01 07:59:35;;;;;;;4.00;1.40;;;;;;;;;;5113693;28;20215;-69
2024/01/01 08:02:03;;;;;;;8.18;1.48;;;;;;;;;;5113780;28;20218;-71
2024/01/01 08:04:32;;;;;;;5.13;1.70;;;;;;;;;;5113153;28;20227;-71
2024/01/01 08:07:00;;;;;;;3.10;1.52;;;;;;;;;;5112489;28;20234;-70
2024/01/01 08:09:28;;;;;;;7.97;1.90;;;;;;;;;;5112921;28;20211;-69
2024/01/01 08:11:58;;;;;;;5.10;1.42;;;;;;;;;;5099601;28;20231;-69
2024/01/01 08:14:26;;;;;;;8.13;1.10;;;;;;;;;;5098070;28;20226;-70
2024/01/01 08:16:54;;;;;;;9.05;1.70;;;;;;;;;;5077591;28;20198;-70
2024/01/01 08:19:22;;;;;;;3.58;1.27;;;;;;;;;;5113200;28;20229;-69
2024/01/01 08:21:51;;;;;;;5.03;1.25;;;;;;;;;;5097476;28;20231;-72
2024/01/01 08:24:19;;;;;;;6.07;2.20;;;;;;;;;;5112750;28;20265;-69
2024/01/01 08:26:47;;;;;;;4.32;1.33;;;;;;;;;;5113060;28;20226;-69
2024/01/01 08:29:17;;;;;;;6.35;1.88;;;;;;;;;;5113085;28;20253;-72
2024/01/01 08:31:45;;;;;;;5.68;1.50;;;;;;;;;;5112674;28;20230;-69
2024/01/01 08:34:13;;;;;;;4.85;1.50;;;;;;;;;;5112483;28;20233;-70
2024/01/01 08:36:52;;;;;;;8.60;1.55;;;;;;;;;;5112137;28;20248;-72
2024/01/01 08:39:20;;;;;;;5.32;1.70;;;;;;;;;;5083822;28;20263;-74
2024/01/01 08:41:48;;;;;;;2.42;1.17;;;;;;;;;;5096931;28;20306;-74
2024/01/01 08:44:18;;;;;;;8.27;2.08;;;;;;;;;;5094844;28;20302;-75
2024/01/01 08:46:46;;;;;;;7.38;1.48;;;;;;;;;;5082718;28;20278;-74
2024/01/01 08:49:14;;;;;;;3.40;1.20;;;;;;;;;;5097360;28;20290;-74
2024/01/01 08:51:43;;;;;;;4.32;1.70;;;;;;;;;;5097768;28;20270;-73
2024/01/01 08:54:13;;;;;;;6.28;1.85;;;;;;;;;;5093931;28;20266;-73
2024/01/01 08:56:43;;;;;;;2.70;1.25;;;;;;;;;;5097779;28;20200;-74
2024/01/01 08:59:11;;;;;;;6.25;1.50;;;;;;;;;;5099598;28;20277;-72
2024/01/01 09:01:44;;;;;;;5.50;1.65;;;;;;;;;;5098509;28;20304;-73
2024/01/01 09:04:13;;;;;;;3.58;1.35;;;;;;;;;;5098191;28;20247;-73
2024/01/01 09:06:41;;;;;;;10.85;1.40;;;;;;;;;;5098687;28;20283;-73
2024/01/01 09:09:11;;;;;;;4.10;1.30;;;;;;;;;;5079714;28;20298;-74
2024/01/01 09:11:39;;;;;;;5.78;1.45;;;;;;;;;;5097033;28;20271;-74
2024/01/01 09:14:07;;;;;;;5.03;1.42;;;;;;;;;;5095431;28;20325;-74
2024/01/01 09:16:38;;;;;;;4.00;1.23;;;;;;;;;;5079855;28;20688;-74
2024/01/01 09:19:06;;;;;;;1.75;1.23;;;;;;;;;;5095235;28;20317;-73
2024/01/01 09:21:35;;;;;;;10.38;1.70;;;;;;;;;;5097356;28;20270;-74
2024/01/01 09:24:03;;;;;;;4.43;1.75;;;;;;;;;;5094101;28;20718;-75
2024/01/01 09:26:34;;;;;;;7.05;1.45;;;;;;;;;;5100701;28;20337;-74
2024/01/01 09:29:02;;;;;;;6.75;2.00;;;;;;;;;;5100538;28;20193;-74
2024/01/01 09:31:31;;;;;;;5.68;1.70;;;;;;;;;;5099734;28;20286;-73
2024/01/01 09:34:00;;;;;;;5.07;1.23;;;;;;;;;;5100075;28;20199;-73
2024/01/01 09:36:30;;;;;;;3.45;1.50;;;;;;;;;;5102932;28;20285;-73
2024/01/01 09:38:59;;;;;;;4.00;1.40;;;;;;;;;;5106347;28;20262;-73
2024/01/01 09:41:27;;;;;;;14.77;4.18;;;;;;;;;;5084939;28;20275;-73
2024/01/01 09:43:56;;;;;;;11.02;3.55;;;;;;;;;;5104280;28;20297;-74
2024/01/01 09:46:26;;;;;;;7.60;1.77;;;;;;;;;;5102394;28;20326;-73
2024/01/01 09:48:54;;;;;;;8.35;1.50;;;;;;;;;;5107955;28;20282;-72
2024/01/01 09:51:23;;;;;;;15.75;2.20;;;;;;;;;;5106104;28;20289;-73
2024/01/01 09:53:53;;;;;;;4.97;2.00;;;;;;;;;;5079772;28;21157;-72
2024/01/01 09:56:21;;;;;;;5.35;2.40;;;;;;;;;;5091861;28;20635;-72
2024/01/01 09:58:49;;;;;;;9.95;2.50;;;;;;;;;;5096440;28;20203;-74
2024/01/01 10:01:19;;;;;;;7.00;2.03;;;;;;;;;;5082415;28;20282;-73
2024/01/01 10:04:01;;;;;;;8.60;2.38;;;;;;;;;;5095874;28;20887;-75
2024/01/01 10:06:29;;;;;;;8.23;1.85;;;;;;;;;;5092553;28;20195;-74
2024/01/01 10:09:09;;;;;;;5.03;1.83;;;;;;;;;;5091433;28;20222;-74
2024/01/01 10:11:38;;;;;;;8.57;2.90;;;;;;;;;;5088836;28;20211;-73
2024/01/01 10:14:07;;;;;;;8.48;2.00;;;;;;;;;;5088257;28;20559;-73
2024/01/01 10:16:38;;;;;;;10.18;2.45;;;;;;;;;;5039327;28;20203;-73
2024/01/01 10:19:07;;;;;;;8.77;3.95;;;;;;;;;;5090929;28;20256;-73
2024/01/01 10:21:36;;;;;;;6.93;2.90;;;;;;;;;;5091329;28;20682;-72
2024/01/01 10:24:15;;;;;;;3.67;1.70;;;;;;;;;;5098631;28;20310;-73
2024/01/01 10:26:44;;;;;;;10.38;1.80;;;;;;;;;;5095792;28;20278;-72
2024/01/01 10:29:13;;;;;;;11.77;2.40;;;;;;;;;;5093478;28;20619;-74
2024/01/01 10:31:45;;;;;;;12.18;3.38;;;;;;;;;;5093388;28;20229;-74
2024/01/01 10:34:14;;;;;;;9.55;2.05;;;;;;;;;;5092751;28;20602;-74
2024/01/01 10:36:42;;;;;;;9.80;2.42;;;;;;;;;;5072906;28;20198;-73
2024/01/01 10:39:11;;;;;;;10.65;2.38;;;;;;;;;;5093240;28;20203;-71
2024/01/01 10:41:41;;;;;;;3.55;1.73;;;;;;;;;;5093104;28;20219;-74
2024/01/01 10:44:09;;;;;;;6.95;2.30;;;;;;;;;;5094025;28;20577;-73
2024/01/01 10:46:39;;;;;;;15.68;2.88;;;;;;;;;;5093457;28;20216;-74
2024/01/01 10:49:11;;;;;;;11.95;2.90;;;;;;;;;;5092899;28;20210;-74
2024/01/01 10:51:43;;;;;;;6.43;4.10;;;;;;;;;;5092989;28;20643;-74
2024/01/01 10:54:33;;;;;;;8.05;2.70;;;;;;;;;;5092815;28;20200;-73
2024/01/01 10:57:11;;;;;;;10.10;3.17;;;;;;;;;;5090825;28;20207;-73
2024/01/01 10:59:41;;;;;;;10.77;3.13;;;;;;;;;;5093557;28;20183;-74
2024/01/01 11:02:12;;;;;;;5.80;2.55;;;;;;;;;;5092796;28;20649;-74
2024/01/01 11:04:40;;;;;;;6.90;3.95;;;;;;;;;;5092477;28;20183;-73
2024/01/01 11:07:09;;;;;;;10.65;3.40;;;;;;;;;;5092575;28;20207;-74
2024/01/01 11:09:37;;;;;;;9.23;2.72;;;;;;;;;;5094004;28;20639;-73
2024/01/01 11:12:07;;;;;;;12.20;3.53;;;;;;;;;;5088825;28;20231;-72
2024/01/01 11:14:38;;;;;;;11.25;3.60;;;;;;;;;;5092353;28;20192;-74
2024/01/01 11:17:07;;;;;;;6.32;3.28;;;;;;;;;;5093033;28;20184;-74
2024/01/01 11:19:35;;;;;;;8.23;3.20;;;;;;;;;;5093021;28;20195;-74
2024/01/01 11:22:18;;;;;;;8.10;2.97;;;;;;;;;;5092764;28;20187;-74
2024/01/01 11:24:47;;;;;;;6.35;3.60;;;;;;;;;;5088119;28;20247;-74
2024/01/01 11:27:26;;;;;;;5.30;4.38;;;;;;;;;;5086390;28;20195;-74
2024/01/01 11:29:55;;;;;;;6.03;4.25;;;;;;;;;;5071028;28;20249;-74
2024/01/01 11:32:24;;;;;;;9.45;4.88;;;;;;;;;;5071097;28;20208;-73
2024/01/01 11:35:09;;;;;;;6.43;3.97;;;;;;;;;;5071479;28;20214;-74
2024/01/01 11:37:38;;;;;;;7.18;4.10;;;;;;;;;;5071280;28;20227;-74
2024/01/01 11:40:07;;;;;;;8.40;3.85;;;;;;;;;;5071413;28;20663;-73
2024/01/01 11:42:36;;;;;;;10.60;4.63;;;;;;;;;;5072845;28;20208;-74
2024/01/01 11:45:08;;;;;;;8.23;5.30;;;;;;;;;;5072286;28;20223;-74
2024/01/01 11:47:36;;;;;;;6.70;4.73;;;;;;;;;;5055928;28;20555;-74
2024/01/01 11:50:05;;;;;;;10.68;4.60;;;;;;;;;;5087056;28;20594;-74
2024/01/01 11:52:35;;;;;;;14.30;4.70;;;;;;;;;;5093558;28;20634;-74
2024/01/01 11:55:03;;;;;;;6.70;4.25;;;;;;;;;;5092819;28;20195;-74
2024/01/01 11:57:32;;;;;;;5.03;4.40;;;;;;;;;;5092246;28;20195;-74
2024/01/01 12:00:01;;;;;;;15.45;5.70;;;;;;;;;;5093236;28;20199;-74
2024/01/01 12:02:30;;;;;;;9.52;4.50;;;;;;;;;;5093138;28;20247;-73
2024/01/01 12:04:58;;;;;;;19.90;5.50;;;;;;;;;;5092327;28;20210;-74
2024/01/01 12:07:26;;;;;;;11.65;4.90;;;;;;;;;;5092870;28;20210;-74
2024/01/01 12:10:03;;;;;;;7.10;4.72;;;;;;;;;;5093466;28;20207;-74
2024/01/01 12:12:31;;;;;;;11.87;5.30;;;;;;;;;;5093121;28;20272;-73
2024/01/01 12:15:11;;;;;;;8.70;5.40;;;;;;;;;;5092851;28;20609;-74
2024/01/01 12:17:40;;;;;;;8.18;5.18;;;;;;;;;;5093077;28;20187;-74
2024/01/01 12:20:10;;;;;;;8.40;5.13;;;;;;;;;;5091856;28;20649;-73
2024/01/01 12:22:39;;;;;;;9.20;5.05;;;;;;;;;;5093206;28;20635;-74
2024/01/01 12:25:07;;;;;;;18.50;4.95;;;;;;;;;;5074049;28;20211;-74
2024/01/01 12:27:36;;;;;;;7.78;5.07;;;;;;;;;;5092079;28;20205;-74
2024/01/01 12:30:04;;;;;;;7.65;3.90;;;;;;;;;;5092082;28;20203;-73
2024/01/01 12:32:34;;;;;;;8.18;4.68;;;;;;;;;;5092188;28;20222;-74
2024/01/01 12:35:03;;;;;;;14.63;4.60;;;;;;;;;;5093249;28;20203;-73
2024/01/01 12:37:32;;;;;;;14.32;5.25;;;;;;;;;;5074814;28;20210;-74
2024/01/01 12:40:00;;;;;;;6.20;4.65;;;;;;;;;;5092383;28;20206;-74
2024/01/01 12:42:29;;;;;;;18.95;5.63;;;;;;;;;;5091590;28;20687;-74
2024/01/01 12:44:57;;;;;;;10.52;4.80;;;;;;;;;;5092039;28;20227;-73
2024/01/01 12:47:25;;;;;;;15.50;5.70;;;;;;;;;;5092096;28;20550;-74
2024/01/01 12:49:55;;;;;;;15.57;4.13;;;;;;;;;;5092108;28;20206;-75
2024/01/01 12:52:23;;;;;;;13.07;5.75;;;;;;;;;;5092366;28;20226;-74
2024/01/01 12:54:51;;;;;;;10.75;4.40;;;;;;;;;;5091094;28;20221;-74
2024/01/01 12:57:20;;;;;;;8.77;4.38;;;;;;;;;;5091508;28;20538;-74
2024/01/01 12:59:48;;;;;;;17.95;4.63;;;;;;;;;;5089384;28;20207;-74
2024/01/01 13:02:16;;;;;;;9.23;4.72;;;;;;;;;;5090816;28;20199;-74
2024/01/01 13:04:45;;;;;;;7.80;4.53;;;;;;;;;;5090975;28;20228;-74
2024/01/01 13:07:15;;;;;;;9.63;4.50;;;;;;;;;;5091437;28;20198;-74
2024/01/01 13:09:43;;;;;;;10.27;4.32;;;;;;;;;;5092079;28;20206;-74
2024/01/01 13:12:11;;;;;;;11.48;4.88;;;;;;;;;;5091077;28;20218;-74
2024/01/01 13:14:40;;;;;;;11.70;4.97;;;;;;;;;;5092010;28;20203;-73
2024/01/01 13:17:08;;;;;;;13.83;5.40;;;;;;;;;;5091161;28;20712;-73
2024/01/01 13:19:38;;;;;;;8.27;4.55;;;;;;;;;;5091847;28;20605;-73
2024/01/01 13:22:07;;;;;;;5.50;3.67;;;;;;;;;;5072887;28;20195;-73
2024/01/01 13:24:38;;;;;;;13.73;5.93;;;;;;;;;;5091702;28;20207;-72
2024/01/01 13:27:07;;;;;;;16.48;4.60;;;;;;;;;;5090782;28;20191;-75
2024/01/01 13:29:36;;;;;;;10.23;4.88;;;;;;;;;;5091316;28;20210;-72
2024/01/01 13:32:04;;;;;;;15.65;4.35;;;;;;;;;;5091007;28;20242;-72
2024/01/01 13:34:32;;;;;;;12.80;3.78;;;;;;;;;;5091082;28;20203;-72
2024/01/01 13:37:00;;;;;;;10.13;4.28;;;;;;;;;;5073014;28;20204;-73
2024/01/01 13:39:29;;;;;;;11.05;3.95;;;;;;;;;;5091512;28;20206;-74
2024/01/01 13:41:59;;;;;;;7.30;4.53;;;;;;;;;;5090796;28;20234;-73
2024/01/01 13:44:27;;;;;;;9.85;4.07;;;;;;;;;;5090976;28;20214;-73
2024/01/01 13:46:56;;;;;;;14.63;4.18;;;;;;;;;;5090458;28;20547;-73
2024/01/01 13:49:25;;;;;;;7.75;4.32;;;;;;;;;;5091179;28;20606;-73
2024/01/01 13:51:56;;;;;;;8.55;4.47;;;;;;;;;;5090667;28;20312;-73
2024/01/01 13:54:25;;;;;;;12.35;3.55;;;;;;;;;;5091002;28;20191;-75
2024/01/01 13:56:53;;;;;;;12.25;3.83;;;;;;;;;;5090489;28;20718;-73
2024/01/01 13:59:22;;;;;;;7.40;3.92;;;;;;;;;;5091162;28;20207;-73
2024/01/01 14:01:51;;;;;;;13.65;4.32;;;;;;;;;;5089993;28;20767;-73
2024/01/01 14:04:20;;;;;;;8.35;4.93;;;;;;;;;;5071741;28;20673;-73
2024/01/01 14:06:48;;;;;;;7.80;3.60;;;;;;;;;;5090759;28;20519;-73
2024/01/01 14:09:16;;;;;;;13.38;4.22;;;;;;;;;;5093221;28;20203;-74
2024/01/01 14:11:46;;;;;;;4.72;4.10;;;;;;;;;;5094153;28;20595;-74
2024/01/01 14:14:15;;;;;;;8.60;4.38;;;;;;;;;;5095026;28;20199;-73
2024/01/01 14:16:46;;;;;;;14.07;4.65;;;;;;;;;;5076417;28;20199;-73
2024/01/01 14:19:15;;;;;;;15.93;3.97;;;;;;;;;;5094391;28;20188;-74
2024/01/01 14:21:43;;;;;;;14.65;4.50;;;;;;;;;;5093936;28;20199;-74
2024/01/01 14:24:11;;;;;;;10.68;3.85;;;;;;;;;;5093866;28;20842;-73
2024/01/01 14:26:39;;;;;;;7.45;4.38;;;;;;;;;;5094676;28;20205;-74
2024/01/01 14:29:08;;;;;;;8.20;6.18;;;;;;;;;;5094325;28;20355;-73
2024/01/01 14:31:36;;;;;;;9.00;5.57;;;;;;;;;;5094242;28;20203;-74
2024/01/01 14:34:05;;;;;;;40.38;22.48;;;;;;;;;;5077078;28;20205;-74
2024/01/01 14:36:34;;;;;;;11.52;4.63;;;;;;;;;;5093860;28;20203;-73
2024/01/01 14:39:04;;;;;;;9.57;5.45;;;;;;;;;;5093820;28;20207;-73
2024/01/01 14:41:34;;;;;;;12.25;5.63;;;;;;;;;;5077386;28;20283;-74
2024/01/01 14:44:03;;;;;;;9.13;6.53;;;;;;;;;;5093995;28;20589;-74
2024/01/01 14:46:32;;;;;;;17.70;6.20;;;;;;;;;;5093923;28;20570;-73
2024/01/01 14:49:00;;;;;;;14.60;4.93;;;;;;;;;;5093797;28;20203;-73